sensor_id;sensor_type;location;lat;lon;timestamp;P1;durP1;ratioP1;P2;durP2;ratioP2
82787;SDS011;72529;51.786;4.662;2023-12-28T00:01:20;5.39;;;5.37;;
82787;SDS011;72529;51.786;4.662;2023-12-28T00:03:47;5.12;;;5.12;;
82787;SDS011;72529;51.786;4.662;2023-12-28T00:06:13;5.16;;;5.16;;
82787;SDS011;72529;51.786;4.662;2023-12-28T00:08:38;4.83;;;4.83;;
82787;SDS011;72529;51.786;4.662;2023-12-28T00:11:04;4.87;;;4.87;;
82787;SDS011;72529;51.786;4.662;2023-12-28T00:13:29;4.82;;;4.82;;
82787;SDS011;72529;51.786;4.662;2023-12-28T00:15:55;4.69;;;4.69;;
82787;SDS011;72529;51.786;4.662;2023-12-28T00:18:20;4.64;;;4.63;;
82787;SDS011;72529;51.786;4.662;2023-12-28T00:20:46;4.80;;;4.79;;
82787;SDS011;72529;51.786;4.662;2023-12-28T00:23:11;4.73;;;4.72;;
82787;SDS011;72529;51.786;4.662;2023-12-28T00:25:36;4.88;;;4.87;;
82787;SDS011;72529;51.786;4.662;2023-12-28T00:28:02;4.84;;;4.84;;
82787;SDS011;72529;51.786;4.662;2023-12-28T00:30:28;4.75;;;4.75;;
82787;SDS011;72529;51.786;4.662;2023-12-28T00:32:53;5.07;;;5.07;;
82787;SDS011;72529;51.786;4.662;2023-12-28T00:35:19;4.75;;;4.75;;
82787;SDS011;72529;51.786;4.662;2023-12-28T00:37:44;4.98;;;4.97;;
82787;SDS011;72529;51.786;4.662;2023-12-28T00:40:10;4.92;;;4.89;;
82787;SDS011;72529;51.786;4.662;2023-12-28T00:42:35;5.36;;;5.36;;
82787;SDS011;72529;51.786;4.662;2023-12-28T00:45:01;5.27;;;5.27;;
82787;SDS011;72529;51.786;4.662;2023-12-28T00:47:27;5.34;;;5.34;;
82787;SDS011;72529;51.786;4.662;2023-12-28T00:49:54;4.98;;;4.98;;
82787;SDS011;72529;51.786;4.662;2023-12-28T00:52:19;5.04;;;5.04;;
82787;SDS011;72529;51.786;4.662;2023-12-28T00:54:45;4.99;;;4.99;;
82787;SDS011;72529;51.786;4.662;2023-12-28T00:57:10;4.79;;;4.79;;
82787;SDS011;72529;51.786;4.662;2023-12-28T00:59:35;4.90;;;4.89;;
82787;SDS011;72529;51.786;4.662;2023-12-28T01:02:01;4.85;;;4.85;;
82787;SDS011;72529;51.786;4.662;2023-12-28T01:04:26;4.75;;;4.75;;
82787;SDS011;72529;51.786;4.662;2023-12-28T01:06:52;4.97;;;4.97;;
82787;SDS011;72529;51.786;4.662;2023-12-28T01:09:18;4.86;;;4.86;;
82787;SDS011;72529;51.786;4.662;2023-12-28T01:11:45;4.83;;;4.83;;
82787;SDS011;72529;51.786;4.662;2023-12-28T01:14:10;4.91;;;4.91;;
82787;SDS011;72529;51.786;4.662;2023-12-28T01:16:36;5.13;;;5.13;;
82787;SDS011;72529;51.786;4.662;2023-12-28T01:19:04;4.48;;;4.48;;
82787;SDS011;72529;51.786;4.662;2023-12-28T01:21:30;4.64;;;4.64;;
82787;SDS011;72529;51.786;4.662;2023-12-28T01:23:55;4.61;;;4.61;;
82787;SDS011;72529;51.786;4.662;2023-12-28T01:26:21;4.85;;;4.85;;
82787;SDS011;72529;51.786;4.662;2023-12-28T01:28:46;4.75;;;4.75;;
82787;SDS011;72529;51.786;4.662;2023-12-28T01:31:12;4.49;;;4.49;;
82787;SDS011;72529;51.786;4.662;2023-12-28T01:33:37;4.61;;;4.61;;
82787;SDS011;72529;51.786;4.662;2023-12-28T01:36:03;4.33;;;4.33;;
82787;SDS011;72529;51.786;4.662;2023-12-28T01:38:45;4.72;;;4.71;;
82787;SDS011;72529;51.786;4.662;2023-12-28T01:41:11;4.72;;;4.72;;
82787;SDS011;72529;51.786;4.662;2023-12-28T01:43:38;4.55;;;4.55;;
82787;SDS011;72529;51.786;4.662;2023-12-28T01:46:04;4.42;;;4.39;;
82787;SDS011;72529;51.786;4.662;2023-12-28T01:48:31;4.51;;;4.48;;
82787;SDS011;72529;51.786;4.662;2023-12-28T01:50:58;4.42;;;4.41;;
82787;SDS011;72529;51.786;4.662;2023-12-28T01:53:24;4.52;;;4.49;;
82787;SDS011;72529;51.786;4.662;2023-12-28T01:55:49;4.57;;;4.56;;
82787;SDS011;72529;51.786;4.662;2023-12-28T01:58:16;4.39;;;4.39;;
82787;SDS011;72529;51.786;4.662;2023-12-28T02:00:43;4.48;;;4.47;;
82787;SDS011;72529;51.786;4.662;2023-12-28T02:03:10;4.35;;;4.34;;
82787;SDS011;72529;51.786;4.662;2023-12-28T02:05:36;4.29;;;4.28;;
82787;SDS011;72529;51.786;4.662;2023-12-28T02:08:02;4.58;;;4.57;;
82787;SDS011;72529;51.786;4.662;2023-12-28T02:10:28;4.43;;;4.43;;
82787;SDS011;72529;51.786;4.662;2023-12-28T02:12:54;4.36;;;4.35;;
82787;SDS011;72529;51.786;4.662;2023-12-28T02:15:20;4.12;;;4.11;;
82787;SDS011;72529;51.786;4.662;2023-12-28T02:18:10;4.31;;;4.31;;
82787;SDS011;72529;51.786;4.662;2023-12-28T02:20:38;4.06;;;4.06;;
82787;SDS011;72529;51.786;4.662;2023-12-28T02:23:05;3.93;;;3.93;;
82787;SDS011;72529;51.786;4.662;2023-12-28T02:25:31;4.01;;;4.00;;
82787;SDS011;72529;51.786;4.662;2023-12-28T02:27:56;4.03;;;4.03;;
82787;SDS011;72529;51.786;4.662;2023-12-28T02:30:23;3.88;;;3.85;;
82787;SDS011;72529;51.786;4.662;2023-12-28T02:35:37;3.69;;;3.69;;
82787;SDS011;72529;51.786;4.662;2023-12-28T02:38:27;3.85;;;3.85;;
82787;SDS011;72529;51.786;4.662;2023-12-28T02:40:55;3.93;;;3.93;;
82787;SDS011;72529;51.786;4.662;2023-12-28T02:43:22;3.94;;;3.94;;
82787;SDS011;72529;51.786;4.662;2023-12-28T02:45:47;4.01;;;4.01;;
82787;SDS011;72529;51.786;4.662;2023-12-28T02:48:13;3.92;;;3.92;;
82787;SDS011;72529;51.786;4.662;2023-12-28T02:50:38;4.06;;;4.06;;
82787;SDS011;72529;51.786;4.662;2023-12-28T02:53:04;3.91;;;3.91;;
82787;SDS011;72529;51.786;4.662;2023-12-28T02:55:29;3.97;;;3.97;;
82787;SDS011;72529;51.786;4.662;2023-12-28T02:57:55;3.83;;;3.82;;
82787;SDS011;72529;51.786;4.662;2023-12-28T03:00:24;3.99;;;3.96;;
82787;SDS011;72529;51.786;4.662;2023-12-28T03:02:50;3.93;;;3.93;;
82787;SDS011;72529;51.786;4.662;2023-12-28T03:05:15;4.15;;;4.13;;
82787;SDS011;72529;51.786;4.662;2023-12-28T03:07:41;4.00;;;4.00;;
82787;SDS011;72529;51.786;4.662;2023-12-28T03:10:07;4.13;;;4.12;;
82787;SDS011;72529;51.786;4.662;2023-12-28T03:12:33;4.11;;;4.09;;
82787;SDS011;72529;51.786;4.662;2023-12-28T03:14:59;3.87;;;3.87;;
82787;SDS011;72529;51.786;4.662;2023-12-28T03:17:24;4.21;;;4.17;;
82787;SDS011;72529;51.786;4.662;2023-12-28T03:19:50;4.12;;;4.11;;
82787;SDS011;72529;51.786;4.662;2023-12-28T03:22:15;3.93;;;3.90;;
82787;SDS011;72529;51.786;4.662;2023-12-28T03:24:42;4.13;;;4.11;;
82787;SDS011;72529;51.786;4.662;2023-12-28T03:27:07;3.98;;;3.94;;
82787;SDS011;72529;51.786;4.662;2023-12-28T03:29:33;4.13;;;4.05;;
82787;SDS011;72529;51.786;4.662;2023-12-28T03:31:58;3.97;;;3.89;;
82787;SDS011;72529;51.786;4.662;2023-12-28T03:34:24;4.03;;;3.96;;
82787;SDS011;72529;51.786;4.662;2023-12-28T03:36:51;4.04;;;3.98;;
82787;SDS011;72529;51.786;4.662;2023-12-28T03:39:17;3.83;;;3.76;;
82787;SDS011;72529;51.786;4.662;2023-12-28T03:41:43;3.71;;;3.61;;
82787;SDS011;72529;51.786;4.662;2023-12-28T03:44:08;3.73;;;3.69;;
82787;SDS011;72529;51.786;4.662;2023-12-28T03:46:34;3.93;;;3.88;;
82787;SDS011;72529;51.786;4.662;2023-12-28T03:49:00;3.96;;;3.91;;
82787;SDS011;72529;51.786;4.662;2023-12-28T03:51:25;3.80;;;3.72;;
82787;SDS011;72529;51.786;4.662;2023-12-28T03:53:50;3.75;;;3.61;;
82787;SDS011;72529;51.786;4.662;2023-12-28T03:56:22;3.71;;;3.58;;
82787;SDS011;72529;51.786;4.662;2023-12-28T03:58:49;4.08;;;3.89;;
82787;SDS011;72529;51.786;4.662;2023-12-28T04:01:19;4.27;;;4.02;;
82787;SDS011;72529;51.786;4.662;2023-12-28T04:03:46;4.03;;;3.77;;
82787;SDS011;72529;51.786;4.662;2023-12-28T04:06:13;4.14;;;3.86;;
82787;SDS011;72529;51.786;4.662;2023-12-28T04:08:39;3.80;;;3.57;;
82787;SDS011;72529;51.786;4.662;2023-12-28T04:11:06;3.92;;;3.65;;
82787;SDS011;72529;51.786;4.662;2023-12-28T04:13:31;3.98;;;3.70;;
82787;SDS011;72529;51.786;4.662;2023-12-28T04:15:57;4.21;;;3.83;;
82787;SDS011;72529;51.786;4.662;2023-12-28T04:18:22;4.34;;;3.91;;
82787;SDS011;72529;51.786;4.662;2023-12-28T04:20:48;4.19;;;3.81;;
82787;SDS011;72529;51.786;4.662;2023-12-28T04:23:14;3.91;;;3.54;;
82787;SDS011;72529;51.786;4.662;2023-12-28T04:25:39;3.96;;;3.60;;
82787;SDS011;72529;51.786;4.662;2023-12-28T04:28:05;4.02;;;3.63;;
82787;SDS011;72529;51.786;4.662;2023-12-28T04:30:31;4.07;;;3.69;;
82787;SDS011;72529;51.786;4.662;2023-12-28T04:32:57;4.45;;;4.01;;
82787;SDS011;72529;51.786;4.662;2023-12-28T04:35:22;4.31;;;3.91;;
82787;SDS011;72529;51.786;4.662;2023-12-28T04:37:47;4.39;;;3.93;;
82787;SDS011;72529;51.786;4.662;2023-12-28T04:40:13;4.18;;;3.72;;
82787;SDS011;72529;51.786;4.662;2023-12-28T04:42:40;3.91;;;3.52;;
82787;SDS011;72529;51.786;4.662;2023-12-28T04:45:06;3.61;;;3.20;;
82787;SDS011;72529;51.786;4.662;2023-12-28T04:47:32;4.44;;;3.87;;
82787;SDS011;72529;51.786;4.662;2023-12-28T04:49:58;4.95;;;4.26;;
82787;SDS011;72529;51.786;4.662;2023-12-28T04:52:23;4.24;;;3.72;;
82787;SDS011;72529;51.786;4.662;2023-12-28T04:54:48;4.25;;;3.73;;
82787;SDS011;72529;51.786;4.662;2023-12-28T04:57:14;4.16;;;3.61;;
82787;SDS011;72529;51.786;4.662;2023-12-28T04:59:39;4.77;;;4.06;;
82787;SDS011;72529;51.786;4.662;2023-12-28T05:02:05;4.04;;;3.47;;
82787;SDS011;72529;51.786;4.662;2023-12-28T05:04:31;4.46;;;3.77;;
82787;SDS011;72529;51.786;4.662;2023-12-28T05:06:57;4.45;;;3.78;;
82787;SDS011;72529;51.786;4.662;2023-12-28T05:09:22;4.09;;;3.45;;
82787;SDS011;72529;51.786;4.662;2023-12-28T05:11:48;4.56;;;3.84;;
82787;SDS011;72529;51.786;4.662;2023-12-28T05:14:13;4.75;;;3.95;;
82787;SDS011;72529;51.786;4.662;2023-12-28T05:16:38;5.94;;;4.77;;
82787;SDS011;72529;51.786;4.662;2023-12-28T05:19:04;5.12;;;4.15;;
82787;SDS011;72529;51.786;4.662;2023-12-28T05:21:29;5.28;;;4.20;;
82787;SDS011;72529;51.786;4.662;2023-12-28T05:23:55;6.03;;;4.68;;
82787;SDS011;72529;51.786;4.662;2023-12-28T05:26:20;5.56;;;4.38;;
82787;SDS011;72529;51.786;4.662;2023-12-28T05:28:46;5.53;;;4.29;;
82787;SDS011;72529;51.786;4.662;2023-12-28T05:31:11;5.46;;;4.24;;
82787;SDS011;72529;51.786;4.662;2023-12-28T05:33:38;6.29;;;4.75;;
82787;SDS011;72529;51.786;4.662;2023-12-28T05:36:04;6.76;;;5.12;;
82787;SDS011;72529;51.786;4.662;2023-12-28T05:38:30;5.99;;;4.55;;
82787;SDS011;72529;51.786;4.662;2023-12-28T05:40:56;5.95;;;4.47;;
82787;SDS011;72529;51.786;4.662;2023-12-28T05:43:21;6.24;;;4.62;;
82787;SDS011;72529;51.786;4.662;2023-12-28T05:45:46;5.68;;;4.32;;
82787;SDS011;72529;51.786;4.662;2023-12-28T05:48:12;6.87;;;5.07;;
82787;SDS011;72529;51.786;4.662;2023-12-28T05:50:37;7.74;;;5.60;;
82787;SDS011;72529;51.786;4.662;2023-12-28T05:53:03;7.72;;;5.47;;
82787;SDS011;72529;51.786;4.662;2023-12-28T05:55:28;6.98;;;4.97;;
82787;SDS011;72529;51.786;4.662;2023-12-28T05:57:53;7.98;;;5.65;;
82787;SDS011;72529;51.786;4.662;2023-12-28T06:00:19;7.39;;;5.22;;
82787;SDS011;72529;51.786;4.662;2023-12-28T06:02:44;7.99;;;5.54;;
82787;SDS011;72529;51.786;4.662;2023-12-28T06:05:12;7.40;;;5.07;;
82787;SDS011;72529;51.786;4.662;2023-12-28T06:07:37;7.88;;;5.41;;
82787;SDS011;72529;51.786;4.662;2023-12-28T06:10:03;8.37;;;5.71;;
82787;SDS011;72529;51.786;4.662;2023-12-28T06:12:29;7.98;;;5.40;;
82787;SDS011;72529;51.786;4.662;2023-12-28T06:14:55;8.29;;;5.65;;
82787;SDS011;72529;51.786;4.662;2023-12-28T06:17:20;8.61;;;5.81;;
82787;SDS011;72529;51.786;4.662;2023-12-28T06:19:45;7.97;;;5.48;;
82787;SDS011;72529;51.786;4.662;2023-12-28T06:22:11;7.44;;;5.07;;
82787;SDS011;72529;51.786;4.662;2023-12-28T06:24:39;8.41;;;5.62;;
82787;SDS011;72529;51.786;4.662;2023-12-28T06:27:05;8.63;;;5.74;;
82787;SDS011;72529;51.786;4.662;2023-12-28T06:29:30;8.42;;;5.69;;
82787;SDS011;72529;51.786;4.662;2023-12-28T06:31:56;8.22;;;5.59;;
82787;SDS011;72529;51.786;4.662;2023-12-28T06:34:21;8.82;;;5.99;;
82787;SDS011;72529;51.786;4.662;2023-12-28T06:36:47;7.81;;;5.32;;
82787;SDS011;72529;51.786;4.662;2023-12-28T06:39:12;7.57;;;5.15;;
82787;SDS011;72529;51.786;4.662;2023-12-28T06:41:38;8.46;;;5.73;;
82787;SDS011;72529;51.786;4.662;2023-12-28T06:44:03;8.36;;;5.73;;
82787;SDS011;72529;51.786;4.662;2023-12-28T06:46:29;8.07;;;5.54;;
82787;SDS011;72529;51.786;4.662;2023-12-28T06:48:54;7.80;;;5.30;;
82787;SDS011;72529;51.786;4.662;2023-12-28T06:51:20;8.45;;;5.77;;
82787;SDS011;72529;51.786;4.662;2023-12-28T06:53:47;8.68;;;5.98;;
82787;SDS011;72529;51.786;4.662;2023-12-28T06:56:14;7.50;;;5.32;;
82787;SDS011;72529;51.786;4.662;2023-12-28T06:58:40;7.26;;;5.21;;
82787;SDS011;72529;51.786;4.662;2023-12-28T07:01:06;7.14;;;5.06;;
82787;SDS011;72529;51.786;4.662;2023-12-28T07:03:32;7.14;;;4.98;;
82787;SDS011;72529;51.786;4.662;2023-12-28T07:05:59;8.02;;;5.66;;
82787;SDS011;72529;51.786;4.662;2023-12-28T07:08:24;8.18;;;5.70;;
82787;SDS011;72529;51.786;4.662;2023-12-28T07:10:50;7.91;;;5.46;;
82787;SDS011;72529;51.786;4.662;2023-12-28T07:13:16;8.73;;;5.97;;
82787;SDS011;72529;51.786;4.662;2023-12-28T07:15:41;8.22;;;5.68;;
82787;SDS011;72529;51.786;4.662;2023-12-28T07:18:06;8.65;;;5.92;;
82787;SDS011;72529;51.786;4.662;2023-12-28T07:20:32;8.26;;;5.62;;
82787;SDS011;72529;51.786;4.662;2023-12-28T07:22:57;8.24;;;5.67;;
82787;SDS011;72529;51.786;4.662;2023-12-28T07:25:23;7.56;;;5.29;;
82787;SDS011;72529;51.786;4.662;2023-12-28T07:27:48;8.28;;;5.65;;
82787;SDS011;72529;51.786;4.662;2023-12-28T07:30:13;8.26;;;5.62;;
82787;SDS011;72529;51.786;4.662;2023-12-28T07:32:41;8.23;;;5.68;;
82787;SDS011;72529;51.786;4.662;2023-12-28T07:35:07;7.78;;;5.42;;
82787;SDS011;72529;51.786;4.662;2023-12-28T07:37:34;8.00;;;5.61;;
82787;SDS011;72529;51.786;4.662;2023-12-28T07:40:00;7.46;;;5.14;;
82787;SDS011;72529;51.786;4.662;2023-12-28T07:42:25;7.94;;;5.48;;
82787;SDS011;72529;51.786;4.662;2023-12-28T07:44:51;8.50;;;5.84;;
82787;SDS011;72529;51.786;4.662;2023-12-28T07:47:16;8.29;;;5.61;;
82787;SDS011;72529;51.786;4.662;2023-12-28T07:49:42;7.95;;;5.43;;
82787;SDS011;72529;51.786;4.662;2023-12-28T07:52:08;9.60;;;6.49;;
82787;SDS011;72529;51.786;4.662;2023-12-28T07:54:33;8.52;;;5.70;;
82787;SDS011;72529;51.786;4.662;2023-12-28T07:56:59;9.24;;;6.18;;
82787;SDS011;72529;51.786;4.662;2023-12-28T07:59:25;9.41;;;6.32;;
82787;SDS011;72529;51.786;4.662;2023-12-28T08:01:50;9.72;;;6.51;;
82787;SDS011;72529;51.786;4.662;2023-12-28T08:04:16;8.97;;;5.98;;
82787;SDS011;72529;51.786;4.662;2023-12-28T08:06:41;9.58;;;6.35;;
82787;SDS011;72529;51.786;4.662;2023-12-28T08:09:07;10.55;;;6.91;;
82787;SDS011;72529;51.786;4.662;2023-12-28T08:11:32;9.14;;;6.05;;
82787;SDS011;72529;51.786;4.662;2023-12-28T08:13:57;9.66;;;6.42;;
82787;SDS011;72529;51.786;4.662;2023-12-28T08:16:23;9.49;;;6.24;;
82787;SDS011;72529;51.786;4.662;2023-12-28T08:18:48;9.74;;;6.34;;
82787;SDS011;72529;51.786;4.662;2023-12-28T08:21:14;9.94;;;6.43;;
82787;SDS011;72529;51.786;4.662;2023-12-28T08:23:39;9.36;;;6.18;;
82787;SDS011;72529;51.786;4.662;2023-12-28T08:26:05;9.29;;;6.14;;
82787;SDS011;72529;51.786;4.662;2023-12-28T08:28:32;9.56;;;6.30;;
82787;SDS011;72529;51.786;4.662;2023-12-28T08:30:58;9.23;;;6.06;;
82787;SDS011;72529;51.786;4.662;2023-12-28T08:33:23;9.44;;;6.14;;
82787;SDS011;72529;51.786;4.662;2023-12-28T08:35:48;10.38;;;6.73;;
82787;SDS011;72529;51.786;4.662;2023-12-28T08:38:14;10.48;;;6.70;;
82787;SDS011;72529;51.786;4.662;2023-12-28T08:40:39;9.82;;;6.34;;
82787;SDS011;72529;51.786;4.662;2023-12-28T08:43:05;9.74;;;6.31;;
82787;SDS011;72529;51.786;4.662;2023-12-28T08:45:30;10.28;;;6.63;;
82787;SDS011;72529;51.786;4.662;2023-12-28T08:47:56;10.48;;;6.84;;
82787;SDS011;72529;51.786;4.662;2023-12-28T08:50:21;10.38;;;6.77;;
82787;SDS011;72529;51.786;4.662;2023-12-28T08:52:47;11.01;;;7.02;;
82787;SDS011;72529;51.786;4.662;2023-12-28T08:55:13;11.52;;;7.34;;
82787;SDS011;72529;51.786;4.662;2023-12-28T08:57:39;11.20;;;7.15;;
82787;SDS011;72529;51.786;4.662;2023-12-28T09:00:05;10.94;;;6.97;;
82787;SDS011;72529;51.786;4.662;2023-12-28T09:02:31;9.40;;;6.05;;
82787;SDS011;72529;51.786;4.662;2023-12-28T09:04:58;10.91;;;6.94;;
82787;SDS011;72529;51.786;4.662;2023-12-28T09:07:24;10.27;;;6.55;;
82787;SDS011;72529;51.786;4.662;2023-12-28T09:09:50;10.94;;;6.99;;
82787;SDS011;72529;51.786;4.662;2023-12-28T09:12:15;9.41;;;5.97;;
82787;SDS011;72529;51.786;4.662;2023-12-28T09:14:41;11.41;;;7.25;;
82787;SDS011;72529;51.786;4.662;2023-12-28T09:17:06;10.19;;;6.45;;
82787;SDS011;72529;51.786;4.662;2023-12-28T09:19:31;10.77;;;6.87;;
82787;SDS011;72529;51.786;4.662;2023-12-28T09:21:57;11.88;;;7.51;;
82787;SDS011;72529;51.786;4.662;2023-12-28T09:24:22;10.45;;;6.62;;
82787;SDS011;72529;51.786;4.662;2023-12-28T09:26:48;10.38;;;6.72;;
82787;SDS011;72529;51.786;4.662;2023-12-28T09:29:13;10.29;;;6.64;;
82787;SDS011;72529;51.786;4.662;2023-12-28T09:31:39;10.33;;;6.63;;
82787;SDS011;72529;51.786;4.662;2023-12-28T09:34:04;11.14;;;7.03;;
82787;SDS011;72529;51.786;4.662;2023-12-28T09:36:30;10.38;;;6.52;;
82787;SDS011;72529;51.786;4.662;2023-12-28T09:38:56;11.39;;;7.10;;
82787;SDS011;72529;51.786;4.662;2023-12-28T09:41:22;11.04;;;6.97;;
82787;SDS011;72529;51.786;4.662;2023-12-28T09:43:58;11.29;;;7.16;;
82787;SDS011;72529;51.786;4.662;2023-12-28T09:46:36;10.10;;;6.53;;
82787;SDS011;72529;51.786;4.662;2023-12-28T09:49:03;9.38;;;6.13;;
82787;SDS011;72529;51.786;4.662;2023-12-28T09:51:29;10.37;;;6.64;;
82787;SDS011;72529;51.786;4.662;2023-12-28T09:53:55;11.33;;;7.21;;
82787;SDS011;72529;51.786;4.662;2023-12-28T09:56:21;9.95;;;6.41;;
82787;SDS011;72529;51.786;4.662;2023-12-28T09:58:48;10.03;;;6.34;;
82787;SDS011;72529;51.786;4.662;2023-12-28T10:01:16;11.77;;;7.33;;
82787;SDS011;72529;51.786;4.662;2023-12-28T10:03:42;12.06;;;7.60;;
82787;SDS011;72529;51.786;4.662;2023-12-28T10:06:08;11.43;;;7.18;;
82787;SDS011;72529;51.786;4.662;2023-12-28T10:08:33;11.43;;;7.13;;
82787;SDS011;72529;51.786;4.662;2023-12-28T10:11:00;11.36;;;7.02;;
82787;SDS011;72529;51.786;4.662;2023-12-28T10:13:26;11.90;;;7.32;;
82787;SDS011;72529;51.786;4.662;2023-12-28T10:15:51;11.58;;;7.23;;
82787;SDS011;72529;51.786;4.662;2023-12-28T10:18:17;10.95;;;6.85;;
82787;SDS011;72529;51.786;4.662;2023-12-28T10:20:48;11.80;;;7.40;;
82787;SDS011;72529;51.786;4.662;2023-12-28T10:23:18;11.61;;;7.31;;
82787;SDS011;72529;51.786;4.662;2023-12-28T10:25:44;10.74;;;6.71;;
82787;SDS011;72529;51.786;4.662;2023-12-28T10:28:11;11.75;;;7.42;;
82787;SDS011;72529;51.786;4.662;2023-12-28T10:30:38;11.96;;;7.63;;
82787;SDS011;72529;51.786;4.662;2023-12-28T10:33:05;11.05;;;6.99;;
82787;SDS011;72529;51.786;4.662;2023-12-28T10:35:31;11.60;;;7.35;;
82787;SDS011;72529;51.786;4.662;2023-12-28T10:37:58;11.35;;;7.19;;
82787;SDS011;72529;51.786;4.662;2023-12-28T10:40:25;11.25;;;7.22;;
82787;SDS011;72529;51.786;4.662;2023-12-28T10:42:52;10.37;;;6.68;;
82787;SDS011;72529;51.786;4.662;2023-12-28T10:45:24;11.32;;;7.31;;
82787;SDS011;72529;51.786;4.662;2023-12-28T10:47:54;10.72;;;6.82;;
82787;SDS011;72529;51.786;4.662;2023-12-28T10:50:30;12.35;;;7.76;;
82787;SDS011;72529;51.786;4.662;2023-12-28T10:53:08;12.82;;;7.98;;
82787;SDS011;72529;51.786;4.662;2023-12-28T10:56:02;12.08;;;7.64;;
82787;SDS011;72529;51.786;4.662;2023-12-28T10:58:49;11.92;;;7.54;;
82787;SDS011;72529;51.786;4.662;2023-12-28T11:01:28;11.47;;;7.29;;
82787;SDS011;72529;51.786;4.662;2023-12-28T11:04:42;10.48;;;6.73;;
82787;SDS011;72529;51.786;4.662;2023-12-28T11:06:52;10.54;;;6.78;;
82787;SDS011;72529;51.786;4.662;2023-12-28T11:09:20;11.56;;;7.36;;
82787;SDS011;72529;51.786;4.662;2023-12-28T11:11:47;11.10;;;7.17;;
82787;SDS011;72529;51.786;4.662;2023-12-28T11:14:16;11.28;;;7.23;;
82787;SDS011;72529;51.786;4.662;2023-12-28T11:16:43;11.29;;;7.33;;
82787;SDS011;72529;51.786;4.662;2023-12-28T11:19:09;10.97;;;7.17;;
82787;SDS011;72529;51.786;4.662;2023-12-28T11:21:37;10.88;;;7.01;;
82787;SDS011;72529;51.786;4.662;2023-12-28T11:24:04;11.89;;;7.55;;
82787;SDS011;72529;51.786;4.662;2023-12-28T11:26:31;12.13;;;7.63;;
82787;SDS011;72529;51.786;4.662;2023-12-28T11:29:00;13.02;;;8.14;;
82787;SDS011;72529;51.786;4.662;2023-12-28T11:31:27;12.92;;;8.04;;
82787;SDS011;72529;51.786;4.662;2023-12-28T11:33:52;13.77;;;8.45;;
82787;SDS011;72529;51.786;4.662;2023-12-28T11:36:22;12.65;;;7.88;;
82787;SDS011;72529;51.786;4.662;2023-12-28T11:38:54;12.68;;;7.97;;
82787;SDS011;72529;51.786;4.662;2023-12-28T11:41:26;12.46;;;7.93;;
82787;SDS011;72529;51.786;4.662;2023-12-28T11:43:53;12.16;;;7.75;;
82787;SDS011;72529;51.786;4.662;2023-12-28T11:46:20;12.37;;;7.90;;
82787;SDS011;72529;51.786;4.662;2023-12-28T11:48:46;11.27;;;7.19;;
82787;SDS011;72529;51.786;4.662;2023-12-28T11:51:12;11.72;;;7.38;;
82787;SDS011;72529;51.786;4.662;2023-12-28T11:53:37;13.58;;;8.37;;
82787;SDS011;72529;51.786;4.662;2023-12-28T11:56:03;12.67;;;7.85;;
82787;SDS011;72529;51.786;4.662;2023-12-28T11:58:30;11.84;;;7.48;;
82787;SDS011;72529;51.786;4.662;2023-12-28T12:00:58;13.17;;;8.16;;
82787;SDS011;72529;51.786;4.662;2023-12-28T12:03:24;12.78;;;7.90;;
82787;SDS011;72529;51.786;4.662;2023-12-28T12:05:51;12.60;;;7.87;;
82787;SDS011;72529;51.786;4.662;2023-12-28T12:08:17;13.05;;;8.15;;
82787;SDS011;72529;51.786;4.662;2023-12-28T12:10:42;11.66;;;7.35;;
82787;SDS011;72529;51.786;4.662;2023-12-28T12:13:08;12.79;;;8.09;;
82787;SDS011;72529;51.786;4.662;2023-12-28T12:15:34;10.30;;;6.63;;
82787;SDS011;72529;51.786;4.662;2023-12-28T12:18:00;12.15;;;7.80;;
82787;SDS011;72529;51.786;4.662;2023-12-28T12:20:27;12.46;;;7.77;;
82787;SDS011;72529;51.786;4.662;2023-12-28T12:23:00;12.49;;;7.75;;
82787;SDS011;72529;51.786;4.662;2023-12-28T12:25:26;14.28;;;8.92;;
82787;SDS011;72529;51.786;4.662;2023-12-28T12:27:53;11.66;;;7.44;;
82787;SDS011;72529;51.786;4.662;2023-12-28T12:30:19;11.73;;;7.48;;
82787;SDS011;72529;51.786;4.662;2023-12-28T12:32:44;11.27;;;7.10;;
82787;SDS011;72529;51.786;4.662;2023-12-28T12:35:10;12.88;;;8.07;;
82787;SDS011;72529;51.786;4.662;2023-12-28T12:37:37;12.85;;;7.98;;
82787;SDS011;72529;51.786;4.662;2023-12-28T12:40:03;13.20;;;8.07;;
82787;SDS011;72529;51.786;4.662;2023-12-28T12:42:31;13.76;;;8.42;;
82787;SDS011;72529;51.786;4.662;2023-12-28T12:44:57;13.64;;;8.41;;
82787;SDS011;72529;51.786;4.662;2023-12-28T12:47:23;13.18;;;8.22;;
82787;SDS011;72529;51.786;4.662;2023-12-28T12:49:51;13.34;;;8.45;;
82787;SDS011;72529;51.786;4.662;2023-12-28T12:52:16;12.47;;;7.94;;
82787;SDS011;72529;51.786;4.662;2023-12-28T12:54:42;12.29;;;7.80;;
82787;SDS011;72529;51.786;4.662;2023-12-28T12:57:07;12.00;;;7.55;;
82787;SDS011;72529;51.786;4.662;2023-12-28T12:59:33;13.94;;;8.61;;
82787;SDS011;72529;51.786;4.662;2023-12-28T13:02:00;12.64;;;8.08;;
82787;SDS011;72529;51.786;4.662;2023-12-28T13:04:26;11.81;;;7.63;;
82787;SDS011;72529;51.786;4.662;2023-12-28T13:06:52;12.03;;;7.72;;
82787;SDS011;72529;51.786;4.662;2023-12-28T13:09:17;12.38;;;7.91;;
82787;SDS011;72529;51.786;4.662;2023-12-28T13:11:43;11.54;;;7.34;;
82787;SDS011;72529;51.786;4.662;2023-12-28T13:14:09;13.62;;;8.49;;
82787;SDS011;72529;51.786;4.662;2023-12-28T13:16:34;13.25;;;8.23;;
82787;SDS011;72529;51.786;4.662;2023-12-28T13:19:00;12.28;;;7.64;;
82787;SDS011;72529;51.786;4.662;2023-12-28T13:21:25;12.08;;;7.49;;
82787;SDS011;72529;51.786;4.662;2023-12-28T13:23:51;13.18;;;8.14;;
82787;SDS011;72529;51.786;4.662;2023-12-28T13:26:16;12.26;;;7.64;;
82787;SDS011;72529;51.786;4.662;2023-12-28T13:28:42;12.30;;;7.60;;
82787;SDS011;72529;51.786;4.662;2023-12-28T13:31:07;12.71;;;7.87;;
82787;SDS011;72529;51.786;4.662;2023-12-28T13:33:33;13.10;;;8.14;;
82787;SDS011;72529;51.786;4.662;2023-12-28T13:35:58;13.41;;;8.33;;
82787;SDS011;72529;51.786;4.662;2023-12-28T13:38:25;13.05;;;8.05;;
82787;SDS011;72529;51.786;4.662;2023-12-28T13:40:50;12.32;;;7.74;;
82787;SDS011;72529;51.786;4.662;2023-12-28T13:43:16;11.97;;;7.52;;
82787;SDS011;72529;51.786;4.662;2023-12-28T13:45:42;13.41;;;8.32;;
82787;SDS011;72529;51.786;4.662;2023-12-28T13:48:07;14.17;;;8.85;;
82787;SDS011;72529;51.786;4.662;2023-12-28T13:50:34;12.69;;;8.09;;
82787;SDS011;72529;51.786;4.662;2023-12-28T13:52:59;13.17;;;8.37;;
82787;SDS011;72529;51.786;4.662;2023-12-28T13:55:25;14.27;;;8.95;;
82787;SDS011;72529;51.786;4.662;2023-12-28T13:57:50;15.21;;;9.52;;
82787;SDS011;72529;51.786;4.662;2023-12-28T14:00:16;14.28;;;8.96;;
82787;SDS011;72529;51.786;4.662;2023-12-28T14:02:41;12.49;;;7.89;;
82787;SDS011;72529;51.786;4.662;2023-12-28T14:05:07;12.69;;;7.90;;
82787;SDS011;72529;51.786;4.662;2023-12-28T14:07:32;12.61;;;7.82;;
82787;SDS011;72529;51.786;4.662;2023-12-28T14:09:58;12.35;;;7.76;;
82787;SDS011;72529;51.786;4.662;2023-12-28T14:12:23;12.78;;;7.97;;
82787;SDS011;72529;51.786;4.662;2023-12-28T14:14:49;12.44;;;7.76;;
82787;SDS011;72529;51.786;4.662;2023-12-28T14:17:14;12.98;;;8.16;;
82787;SDS011;72529;51.786;4.662;2023-12-28T14:19:40;11.08;;;7.08;;
82787;SDS011;72529;51.786;4.662;2023-12-28T14:22:06;10.81;;;7.01;;
82787;SDS011;72529;51.786;4.662;2023-12-28T14:24:32;12.05;;;7.75;;
82787;SDS011;72529;51.786;4.662;2023-12-28T14:26:58;11.19;;;7.18;;
82787;SDS011;72529;51.786;4.662;2023-12-28T14:29:24;12.14;;;7.86;;
82787;SDS011;72529;51.786;4.662;2023-12-28T14:31:49;11.08;;;7.18;;
82787;SDS011;72529;51.786;4.662;2023-12-28T14:34:15;11.68;;;7.43;;
82787;SDS011;72529;51.786;4.662;2023-12-28T14:36:41;11.95;;;7.51;;
82787;SDS011;72529;51.786;4.662;2023-12-28T14:39:14;12.05;;;7.65;;
82787;SDS011;72529;51.786;4.662;2023-12-28T14:41:43;12.45;;;7.83;;